createdAt,value
2022-08-28T00:02:01.831Z,66.94
2022-08-28T00:04:30.751Z,66.77
2022-08-28T00:06:57.990Z,66.83
2022-08-28T00:09:24.725Z,66.97
2022-08-28T00:11:54.366Z,66.96
2022-08-28T00:14:21.147Z,67.20
2022-08-28T00:16:49.510Z,67.09
2022-08-28T00:19:20.114Z,67.40
2022-08-28T00:21:49.951Z,67.67
2022-08-28T00:24:17.721Z,67.54
2022-08-28T00:27:03.372Z,67.35
2022-08-28T00:29:31.245Z,67.89
2022-08-28T00:32:00.424Z,67.99
2022-08-28T00:34:33.105Z,68.43
2022-08-28T00:37:00.779Z,68.46
2022-08-28T00:39:29.753Z,68.49
2022-08-28T00:41:57.929Z,68.78
2022-08-28T00:44:29.500Z,68.80
2022-08-28T00:46:57.899Z,69.02
2022-08-28T00:49:29.345Z,69.17
2022-08-28T00:52:05.855Z,69.38
2022-08-28T00:54:45.383Z,69.34
2022-08-28T00:57:34.141Z,69.42
2022-08-28T01:00:01.665Z,69.66
2022-08-28T01:02:28.784Z,69.73
2022-08-28T01:04:55.943Z,69.91
2022-08-28T01:07:23.359Z,69.95
2022-08-28T01:09:54.052Z,70.15
2022-08-28T01:12:29.066Z,70.32
2022-08-28T01:15:00.117Z,70.61
2022-08-28T01:17:33.845Z,70.70
2022-08-28T01:20:09.638Z,70.87
2022-08-28T01:22:44.336Z,70.95
2022-08-28T01:25:15.135Z,71.08
2022-08-28T01:27:42.246Z,70.90
2022-08-28T01:30:12.057Z,71.19
2022-08-28T01:32:42.480Z,71.39
2022-08-28T01:35:13.680Z,71.46
2022-08-28T01:37:40.903Z,71.64
2022-08-28T01:40:10.162Z,71.63
2022-08-28T01:42:44.189Z,71.45
2022-08-28T01:45:14.551Z,71.89
2022-08-28T01:47:43.197Z,71.90
2022-08-28T01:50:15.983Z,71.98
2022-08-28T01:52:43.126Z,71.89
2022-08-28T01:55:10.755Z,71.83
2022-08-28T01:57:49.676Z,71.77
2022-08-28T02:00:20.509Z,71.88
2022-08-28T02:02:48.402Z,71.93
2022-08-28T02:05:15.183Z,71.98
2022-08-28T02:07:41.730Z,72.24
2022-08-28T02:10:11.951Z,72.39
2022-08-28T02:12:38.801Z,72.21
2022-08-28T02:15:07.491Z,72.14
2022-08-28T02:17:36.877Z,72.42
2022-08-28T02:20:05.663Z,72.50
2022-08-28T02:22:32.470Z,72.35
2022-08-28T02:24:59.122Z,72.60
2022-08-28T02:27:27.747Z,72.53
2022-08-28T02:29:57.793Z,72.46
2022-08-28T02:32:27.993Z,72.46
2022-08-28T02:34:57.306Z,72.52
2022-08-28T02:37:26.356Z,72.65
2022-08-28T02:39:57.365Z,72.93
2022-08-28T02:42:24.264Z,72.91
2022-08-28T02:44:50.861Z,73.21
2022-08-28T02:47:18.409Z,73.26
2022-08-28T02:49:48.133Z,73.47
2022-08-28T02:52:14.743Z,73.60
2022-08-28T02:54:41.422Z,73.63
2022-08-28T02:57:08.769Z,73.84
2022-08-28T02:59:36.419Z,74.15
2022-08-28T03:02:07.375Z,74.28
2022-08-28T03:04:36.064Z,74.58
2022-08-28T03:07:03.654Z,74.66
2022-08-28T03:09:30.653Z,74.82
2022-08-28T03:11:57.217Z,75.10
2022-08-28T03:14:26.410Z,75.26
2022-08-28T03:16:53.038Z,75.21
2022-08-28T03:19:19.913Z,75.29
2022-08-28T03:21:48.695Z,75.38
2022-08-28T03:24:21.317Z,75.39
2022-08-28T03:26:47.982Z,75.59
2022-08-28T03:29:15.973Z,75.39
2022-08-28T03:31:42.725Z,75.27
2022-08-28T03:34:09.582Z,75.52
2022-08-28T03:36:36.169Z,75.57
2022-08-28T03:39:05.757Z,75.63
2022-08-28T03:41:34.662Z,75.57
2022-08-28T03:44:04.857Z,75.69
2022-08-28T03:46:33.050Z,75.98
2022-08-28T03:49:01.320Z,76.20
2022-08-28T03:51:31.753Z,76.34
2022-08-28T03:54:05.161Z,76.43
2022-08-28T03:56:32.303Z,76.41
2022-08-28T03:59:01.636Z,76.64
2022-08-28T04:01:28.314Z,76.41
2022-08-28T04:03:54.909Z,76.62
2022-08-28T04:06:21.510Z,76.69
2022-08-28T04:08:48.204Z,76.78
2022-08-28T04:11:15.173Z,77.09
2022-08-28T04:13:42.079Z,77.00
2022-08-28T04:16:13.955Z,77.42
2022-08-28T04:18:42.325Z,77.42
2022-08-28T04:21:15.025Z,77.46
2022-08-28T04:23:43.306Z,77.65
2022-08-28T04:26:13.040Z,77.57
2022-08-28T04:28:39.662Z,77.95
2022-08-28T04:31:09.404Z,77.96
2022-08-28T04:33:36.630Z,77.96
2022-08-28T04:36:09.201Z,78.28
2022-08-28T04:38:40.357Z,78.13
2022-08-28T04:41:12.005Z,78.21
2022-08-28T04:43:38.610Z,78.31
2022-08-28T04:46:12.470Z,78.21
2022-08-28T04:48:40.361Z,78.32
2022-08-28T04:51:10.186Z,78.44
2022-08-28T04:53:41.035Z,78.51
2022-08-28T04:56:10.921Z,78.60
2022-08-28T04:58:38.565Z,78.61
2022-08-28T05:01:15.271Z,78.74
2022-08-28T05:03:42.303Z,78.68
2022-08-28T05:06:09.190Z,78.69
2022-08-28T05:08:36.009Z,78.82
2022-08-28T05:11:33.047Z,78.75
2022-08-28T05:14:06.879Z,78.44
2022-08-28T05:16:39.602Z,78.67
2022-08-28T05:19:06.275Z,78.46
2022-08-28T05:21:35.283Z,77.78
2022-08-28T05:24:01.928Z,77.17
2022-08-28T05:26:29.954Z,75.11
2022-08-28T05:28:58.175Z,72.84
2022-08-28T05:31:26.364Z,70.81
2022-08-28T05:33:53.912Z,70.98
2022-08-28T05:36:23.295Z,72.13
2022-08-28T05:38:56.913Z,73.59
2022-08-28T05:41:30.233Z,74.11
2022-08-28T05:44:02.637Z,74.53
2022-08-28T05:46:29.615Z,74.57
2022-08-28T05:48:57.664Z,69.69
2022-08-28T05:51:26.446Z,62.59
2022-08-28T05:53:54.015Z,58.88
2022-08-28T05:56:25.977Z,56.47
2022-08-28T05:58:52.675Z,54.25
2022-08-28T06:01:28.520Z,53.00
2022-08-28T06:03:57.456Z,51.39
2022-08-28T06:06:25.573Z,50.54
2022-08-28T06:08:59.369Z,49.74
2022-08-28T06:11:30.344Z,48.68
2022-08-28T06:13:59.907Z,49.82
2022-08-28T06:16:28.933Z,49.41
2022-08-28T06:18:55.836Z,48.40
2022-08-28T06:21:27.058Z,46.96
2022-08-28T06:23:56.157Z,46.24
2022-08-28T06:26:25.209Z,45.17
2022-08-28T06:28:53.133Z,44.66
2022-08-28T06:31:23.238Z,44.00
2022-08-28T06:33:54.164Z,44.21
2022-08-28T06:36:21.122Z,43.68
2022-08-28T06:38:47.697Z,44.14
2022-08-28T06:41:15.694Z,43.23
2022-08-28T06:43:42.919Z,42.49
2022-08-28T06:46:09.791Z,42.03
2022-08-28T06:48:36.779Z,42.10
2022-08-28T06:51:11.181Z,41.61
2022-08-28T06:53:39.983Z,40.30
2022-08-28T06:56:26.086Z,40.22
2022-08-28T06:58:55.295Z,40.79
2022-08-28T07:01:29.336Z,40.26
2022-08-28T07:04:00.523Z,39.79
2022-08-28T07:06:28.280Z,40.41
2022-08-28T07:08:57.083Z,39.64
2022-08-28T07:11:29.927Z,39.58
2022-08-28T07:13:57.822Z,39.53
2022-08-28T07:16:27.676Z,39.67
2022-08-28T07:18:57.311Z,39.44
2022-08-28T07:21:23.984Z,39.19
2022-08-28T07:23:53.478Z,39.68
2022-08-28T07:26:27.847Z,39.56
2022-08-28T07:29:09.588Z,39.25
2022-08-28T07:31:38.661Z,39.43
2022-08-28T07:34:05.304Z,37.66
2022-08-28T07:36:32.387Z,37.80
2022-08-28T07:39:00.141Z,37.31
2022-08-28T07:41:32.356Z,36.79
2022-08-28T07:44:18.670Z,37.37
2022-08-28T07:46:45.933Z,37.07
2022-08-28T07:49:15.589Z,36.98
2022-08-28T07:51:42.527Z,38.33
2022-08-28T07:54:15.455Z,38.35
2022-08-28T07:56:44.643Z,40.25
2022-08-28T07:59:12.181Z,39.86
2022-08-28T08:01:46.686Z,39.93
2022-08-28T08:04:16.140Z,42.07
2022-08-28T08:06:43.686Z,41.20
2022-08-28T08:09:14.374Z,39.63
2022-08-28T08:11:41.462Z,37.91
2022-08-28T08:14:08.481Z,40.81
2022-08-28T08:16:39.195Z,39.13
2022-08-28T08:19:09.989Z,39.12
2022-08-28T08:21:37.919Z,40.20
2022-08-28T08:24:05.293Z,38.88
2022-08-28T08:26:33.181Z,38.41
2022-08-28T08:29:00.256Z,37.34
2022-08-28T08:31:32.785Z,37.64
2022-08-28T08:34:02.575Z,37.64
2022-08-28T08:36:33.263Z,38.63
2022-08-28T08:39:06.496Z,38.72
2022-08-28T08:41:48.319Z,40.30
2022-08-28T08:44:23.972Z,42.71
2022-08-28T08:47:13.284Z,42.60
2022-08-28T08:49:49.848Z,42.85
2022-08-28T08:52:37.299Z,43.74
2022-08-28T08:55:36.765Z,46.80
2022-08-28T08:58:22.339Z,46.44
2022-08-28T09:01:00.962Z,47.89
2022-08-28T09:03:50.215Z,44.16
2022-08-28T09:06:48.268Z,41.18
2022-08-28T09:09:26.950Z,40.33
2022-08-28T09:12:01.773Z,39.64
2022-08-28T09:14:52.863Z,40.48
2022-08-28T09:17:27.609Z,42.78
2022-08-28T09:19:54.735Z,44.73
2022-08-28T09:22:22.499Z,45.28
2022-08-28T09:24:49.484Z,45.82
2022-08-28T09:27:26.144Z,43.93
2022-08-28T09:30:11.418Z,42.73
2022-08-28T09:32:46.791Z,43.04
2022-08-28T09:35:15.856Z,42.85
2022-08-28T09:37:45.040Z,43.11
2022-08-28T09:40:16.841Z,42.92
2022-08-28T09:43:22.471Z,43.24
2022-08-28T09:45:58.361Z,42.55
2022-08-28T09:48:35.996Z,42.77
2022-08-28T09:51:13.666Z,43.07
2022-08-28T09:54:05.097Z,43.12
2022-08-28T09:56:39.893Z,42.98
2022-08-28T09:59:07.659Z,42.68
2022-08-28T10:01:46.718Z,42.38
2022-08-28T10:04:16.727Z,42.27
2022-08-28T10:06:56.584Z,42.51
2022-08-28T10:10:00.449Z,42.46
2022-08-28T10:13:06.261Z,43.11
2022-08-28T10:16:00.351Z,43.83
2022-08-28T10:18:37.474Z,43.76
2022-08-28T10:21:17.148Z,43.05
2022-08-28T10:24:02.600Z,43.08
2022-08-28T10:26:40.395Z,43.00
2022-08-28T10:29:21.901Z,42.75
2022-08-28T10:32:01.942Z,42.82
2022-08-28T10:34:42.699Z,42.62
2022-08-28T10:37:21.012Z,42.27
2022-08-28T10:40:01.028Z,42.41
2022-08-28T10:42:38.995Z,42.60
2022-08-28T10:45:08.658Z,43.21
2022-08-28T10:47:42.577Z,43.29
2022-08-28T10:50:26.701Z,43.11
2022-08-28T10:53:41.073Z,42.89
2022-08-28T10:56:17.603Z,41.71
2022-08-28T10:58:48.760Z,41.24
2022-08-28T11:01:31.916Z,41.34
2022-08-28T11:04:01.651Z,40.56
2022-08-28T11:06:37.152Z,40.61
2022-08-28T11:09:34.032Z,40.14
2022-08-28T11:12:07.186Z,40.97
2022-08-28T11:14:48.321Z,40.56
2022-08-28T11:17:30.590Z,40.83
2022-08-28T11:20:24.987Z,41.25
2022-08-28T11:23:15.583Z,41.57
2022-08-28T11:25:54.821Z,41.38
2022-08-28T11:28:25.138Z,41.08
2022-08-28T11:31:06.958Z,40.73
2022-08-28T11:33:39.230Z,40.42
2022-08-28T11:36:28.239Z,41.31
2022-08-28T11:38:54.947Z,40.96
2022-08-28T11:41:32.326Z,41.57
2022-08-28T11:44:13.859Z,41.23
2022-08-28T11:46:43.680Z,40.83
2022-08-28T11:49:32.108Z,40.41
2022-08-28T11:52:44.824Z,40.18
2022-08-28T11:55:17.264Z,40.14
2022-08-28T12:00:42.861Z,39.62
2022-08-28T12:03:27.652Z,39.58
2022-08-28T12:05:57.121Z,39.01
2022-08-28T12:08:45.057Z,39.42
2022-08-28T12:11:40.400Z,39.22
2022-08-28T12:14:09.241Z,38.61
2022-08-28T12:17:00.878Z,38.31
2022-08-28T12:19:40.236Z,38.58
2022-08-28T12:22:12.533Z,38.92
2022-08-28T12:24:51.526Z,38.56
2022-08-28T12:27:18.581Z,38.19
2022-08-28T12:29:49.629Z,37.30
2022-08-28T12:32:25.363Z,37.31
2022-08-28T12:34:57.957Z,37.74
2022-08-28T12:37:58.560Z,38.08
2022-08-28T12:40:33.576Z,38.11
2022-08-28T12:43:09.059Z,38.28
2022-08-28T12:45:58.919Z,38.57
2022-08-28T12:48:56.412Z,38.28
2022-08-28T12:51:26.628Z,37.72
2022-08-28T12:53:59.166Z,37.25
2022-08-28T12:56:30.051Z,36.06
2022-08-28T12:59:16.536Z,36.24
2022-08-28T13:01:46.075Z,37.71
2022-08-28T13:04:36.091Z,38.18
2022-08-28T13:07:17.474Z,38.37
2022-08-28T13:09:51.766Z,38.57
2022-08-28T13:12:51.715Z,38.42
2022-08-28T13:15:49.572Z,37.67
2022-08-28T13:18:34.662Z,37.49
2022-08-28T13:21:13.456Z,37.08
2022-08-28T13:23:40.295Z,37.82
2022-08-28T13:26:07.546Z,38.29
2022-08-28T13:28:40.035Z,38.28
2022-08-28T13:31:10.551Z,38.31
2022-08-28T13:33:39.065Z,38.44
2022-08-28T13:36:22.615Z,38.09
2022-08-28T13:38:49.128Z,37.40
2022-08-28T13:41:15.779Z,38.09
2022-08-28T13:43:45.644Z,37.58
2022-08-28T13:46:14.548Z,37.08
2022-08-28T13:48:41.158Z,37.16
2022-08-28T13:51:14.236Z,37.31
2022-08-28T13:53:47.376Z,38.06
2022-08-28T13:56:14.015Z,37.83
2022-08-28T13:58:40.650Z,37.75
2022-08-28T14:01:07.369Z,37.58
2022-08-28T14:03:37.569Z,38.10
2022-08-28T14:06:09.258Z,38.17
2022-08-28T14:08:35.942Z,37.76
2022-08-28T14:11:02.773Z,37.43
2022-08-28T14:13:29.517Z,37.12
2022-08-28T14:15:56.963Z,36.99
2022-08-28T14:18:25.114Z,36.92
2022-08-28T14:20:52.049Z,37.44
2022-08-28T14:23:20.752Z,37.65
2022-08-28T14:25:47.589Z,37.63
2022-08-28T14:28:17.170Z,37.39
2022-08-28T14:30:48.164Z,37.63
2022-08-28T14:33:18.772Z,37.15
2022-08-28T14:35:47.358Z,37.10
2022-08-28T14:38:14.279Z,36.82
2022-08-28T14:40:43.120Z,36.88
2022-08-28T14:43:11.536Z,37.01
2022-08-28T14:45:47.700Z,37.43
2022-08-28T14:48:15.701Z,37.71
2022-08-28T14:50:46.529Z,37.76
2022-08-28T14:53:14.037Z,37.53
2022-08-28T14:55:46.724Z,37.51
2022-08-28T14:58:14.390Z,37.31
2022-08-28T15:00:47.196Z,37.24
2022-08-28T15:03:15.178Z,37.17
2022-08-28T15:05:42.374Z,36.95
2022-08-28T15:08:10.560Z,36.66
2022-08-28T15:10:38.542Z,36.29
2022-08-28T15:13:10.162Z,36.24
2022-08-28T15:15:39.681Z,35.25
2022-08-28T15:18:07.371Z,35.24
2022-08-28T15:20:45.436Z,35.00
2022-08-28T15:23:14.000Z,34.91
2022-08-28T15:25:43.180Z,35.58
2022-08-28T15:28:10.182Z,35.84
2022-08-28T15:30:37.102Z,35.69
2022-08-28T15:33:04.150Z,35.40
2022-08-28T15:35:30.909Z,35.53
2022-08-28T15:37:57.704Z,35.47
2022-08-28T15:40:42.637Z,37.40
2022-08-28T15:43:09.257Z,38.63
2022-08-28T15:45:37.848Z,39.20
2022-08-28T15:48:04.646Z,39.38
2022-08-28T15:50:31.344Z,39.68
2022-08-28T15:52:58.929Z,39.83
2022-08-28T15:55:26.175Z,39.61
2022-08-28T15:57:53.046Z,39.52
2022-08-28T16:00:19.808Z,39.25
2022-08-28T16:02:46.458Z,39.59
2022-08-28T16:05:13.082Z,39.68
2022-08-28T16:07:41.983Z,39.47
2022-08-28T16:10:09.689Z,39.64
2022-08-28T16:12:40.105Z,39.41
2022-08-28T16:15:09.673Z,39.17
2022-08-28T16:17:36.418Z,39.60
2022-08-28T16:20:12.901Z,39.18
2022-08-28T16:22:39.920Z,39.12
2022-08-28T16:25:07.475Z,39.19
2022-08-28T16:27:34.250Z,39.41
2022-08-28T16:30:01.077Z,39.40
2022-08-28T16:32:29.993Z,39.30
2022-08-28T16:34:58.271Z,39.28
2022-08-28T16:37:39.792Z,38.90
2022-08-28T16:40:08.899Z,39.58
2022-08-28T16:42:38.582Z,39.56
2022-08-28T16:45:08.637Z,39.91
2022-08-28T16:47:37.834Z,39.79
2022-08-28T16:50:11.844Z,40.17
2022-08-28T16:52:39.142Z,40.01
2022-08-28T16:55:08.634Z,40.54
2022-08-28T16:57:35.717Z,40.43
2022-08-28T17:00:02.727Z,40.82
2022-08-28T17:02:30.227Z,40.88
2022-08-28T17:05:00.504Z,41.27
2022-08-28T17:07:27.123Z,41.10
2022-08-28T17:09:56.205Z,41.72
2022-08-28T17:12:23.035Z,41.53
2022-08-28T17:14:49.649Z,41.54
2022-08-28T17:17:16.236Z,41.73
2022-08-28T17:19:42.799Z,41.75
2022-08-28T17:22:30.223Z,41.86
2022-08-28T17:24:58.799Z,41.62
2022-08-28T17:27:26.449Z,42.00
2022-08-28T17:29:55.951Z,42.23
2022-08-28T17:32:22.540Z,42.01
2022-08-28T17:34:50.364Z,41.96
2022-08-28T17:37:20.741Z,41.55
2022-08-28T17:39:48.377Z,41.29
2022-08-28T17:42:15.015Z,41.99
2022-08-28T17:44:41.609Z,42.55
2022-08-28T17:47:08.372Z,42.62
2022-08-28T17:49:37.655Z,43.29
2022-08-28T17:52:04.674Z,43.26
2022-08-28T17:54:33.837Z,44.36
2022-08-28T17:57:00.461Z,44.27
2022-08-28T17:59:27.799Z,44.51
2022-08-28T18:01:55.220Z,44.47
2022-08-28T18:04:24.890Z,44.19
2022-08-28T18:06:54.298Z,44.32
2022-08-28T18:09:21.825Z,44.60
2022-08-28T18:11:48.579Z,44.87
2022-08-28T18:14:15.262Z,44.83
2022-08-28T18:16:43.067Z,45.51
2022-08-28T18:19:13.725Z,45.74
2022-08-28T18:21:41.104Z,46.06
2022-08-28T18:24:08.290Z,46.34
2022-08-28T18:26:35.135Z,46.62
2022-08-28T18:29:01.702Z,46.71
2022-08-28T18:31:30.792Z,47.04
2022-08-28T18:33:57.536Z,47.57
2022-08-28T18:36:24.345Z,48.07
2022-08-28T18:38:51.423Z,48.21
2022-08-28T18:41:20.037Z,48.33
2022-08-28T18:43:49.001Z,48.37
2022-08-28T18:46:15.862Z,48.70
2022-08-28T18:48:42.974Z,49.04
2022-08-28T18:51:11.867Z,49.47
2022-08-28T18:53:39.376Z,49.64
2022-08-28T18:56:10.620Z,49.81
2022-08-28T18:58:39.759Z,50.13
2022-08-28T19:01:09.456Z,50.29
2022-08-28T19:03:36.100Z,50.57
2022-08-28T19:06:03.400Z,50.46
2022-08-28T19:08:30.342Z,50.70
2022-08-28T19:10:56.959Z,51.22
2022-08-28T19:13:23.512Z,51.17
2022-08-28T19:15:52.625Z,51.36
2022-08-28T19:18:22.049Z,51.43
2022-08-28T19:20:48.711Z,51.93
2022-08-28T19:23:17.796Z,51.96
2022-08-28T19:25:45.820Z,52.36
2022-08-28T19:28:12.582Z,52.36
2022-08-28T19:30:39.301Z,52.78
2022-08-28T19:33:06.189Z,52.91
2022-08-28T19:35:33.854Z,53.11
2022-08-28T19:38:01.278Z,53.29
2022-08-28T19:40:31.641Z,53.43
2022-08-28T19:42:58.287Z,53.71
2022-08-28T19:45:27.363Z,53.85
2022-08-28T19:47:54.024Z,54.24
2022-08-28T19:50:20.681Z,54.16
2022-08-28T19:52:47.407Z,54.36
2022-08-28T19:55:20.194Z,54.54
2022-08-28T19:57:48.433Z,54.79
2022-08-28T20:00:18.380Z,54.85
2022-08-28T20:02:45.869Z,55.20
2022-08-28T20:05:12.795Z,55.41
2022-08-28T20:07:39.386Z,55.50
2022-08-28T20:10:07.332Z,55.71
2022-08-28T20:12:34.416Z,55.92
2022-08-28T20:15:03.773Z,56.06
2022-08-28T20:17:30.847Z,56.39
2022-08-28T20:20:02.366Z,56.35
2022-08-28T20:22:31.813Z,56.57
2022-08-28T20:24:58.777Z,56.60
2022-08-28T20:27:25.900Z,56.79
2022-08-28T20:29:54.936Z,56.96
2022-08-28T20:32:21.549Z,57.11
2022-08-28T20:34:48.093Z,57.45
2022-08-28T20:37:16.777Z,57.48
2022-08-28T20:39:43.478Z,57.66
2022-08-28T20:42:10.558Z,57.71
2022-08-28T20:44:37.528Z,57.80
2022-08-28T20:47:04.384Z,58.19
2022-08-28T20:49:33.472Z,58.18
2022-08-28T20:52:06.139Z,58.47
2022-08-28T20:54:37.274Z,58.90
2022-08-28T20:57:07.717Z,59.04
2022-08-28T20:59:40.159Z,59.22
2022-08-28T21:02:13.809Z,59.57
2022-08-28T21:04:42.695Z,59.77
2022-08-28T21:07:10.348Z,59.90
2022-08-28T21:10:04.086Z,60.16
2022-08-28T21:12:26.447Z,60.20
2022-08-28T21:14:53.034Z,60.51
2022-08-28T21:17:30.276Z,60.56
2022-08-28T21:20:02.855Z,60.56
2022-08-28T21:22:31.182Z,60.95
2022-08-28T21:24:57.800Z,60.70
2022-08-28T21:27:25.000Z,61.02
2022-08-28T21:29:55.103Z,61.19
2022-08-28T21:32:21.654Z,60.87
2022-08-28T21:34:50.450Z,61.48
2022-08-28T21:37:17.044Z,61.57
2022-08-28T21:39:43.835Z,62.11
2022-08-28T21:42:10.423Z,62.41
2022-08-28T21:44:38.599Z,62.60
2022-08-28T21:47:05.515Z,62.66
2022-08-28T21:49:35.226Z,62.88
2022-08-28T21:52:03.084Z,62.88
2022-08-28T21:54:30.284Z,62.94
2022-08-28T21:56:58.593Z,63.27
2022-08-28T21:59:28.466Z,63.34
2022-08-28T22:02:04.656Z,63.40
2022-08-28T22:04:31.481Z,63.70
2022-08-28T22:07:00.508Z,63.97
2022-08-28T22:09:27.490Z,64.42
2022-08-28T22:11:54.092Z,64.33
2022-08-28T22:14:21.019Z,64.75
2022-08-28T22:16:47.806Z,64.61
2022-08-28T22:19:14.458Z,64.74
2022-08-28T22:21:59.621Z,65.15
2022-08-28T22:24:26.236Z,65.25
2022-08-28T22:26:53.262Z,65.09
2022-08-28T22:29:24.759Z,65.40
2022-08-28T22:31:51.686Z,65.60
2022-08-28T22:34:20.779Z,65.47
2022-08-28T22:36:49.686Z,65.50
2022-08-28T22:39:16.246Z,65.78
2022-08-28T22:41:45.053Z,66.10
2022-08-28T22:44:16.211Z,66.10
2022-08-28T22:46:42.747Z,66.36
2022-08-28T22:49:11.815Z,66.75
2022-08-28T22:51:38.346Z,67.06
2022-08-28T22:54:05.457Z,67.44
2022-08-28T22:56:32.059Z,67.38
2022-08-28T22:58:58.572Z,67.45
2022-08-28T23:01:26.534Z,68.04
2022-08-28T23:03:53.320Z,67.81
2022-08-28T23:06:21.558Z,67.92
2022-08-28T23:08:48.154Z,68.10
2022-08-28T23:11:15.244Z,67.99
2022-08-28T23:13:42.110Z,68.58
2022-08-28T23:16:09.404Z,68.76
2022-08-28T23:18:57.555Z,68.82
2022-08-28T23:21:26.475Z,69.12
2022-08-28T23:23:57.125Z,69.32
2022-08-28T23:26:24.777Z,69.46
2022-08-28T23:28:51.757Z,69.52
2022-08-28T23:31:18.795Z,69.47
2022-08-28T23:33:46.033Z,69.45
2022-08-28T23:36:12.647Z,69.54
2022-08-28T23:38:43.080Z,69.79
2022-08-28T23:41:10.724Z,70.02
2022-08-28T23:43:37.304Z,70.00
2022-08-28T23:46:04.713Z,70.05
2022-08-28T23:48:32.109Z,69.81
2022-08-28T23:50:58.993Z,70.14
2022-08-28T23:53:25.882Z,70.06
2022-08-28T23:55:54.160Z,69.83
2022-08-28T23:58:22.293Z,69.92
